Time;durP1;ratioP1;P1;durP2;ratioP2;P2;SDS_P1;SDS_P2;PMS_P1;PMS_P2;Temp;Humidity;BMP_temperature;BMP_pressure;BME280_temperature;BME280_humidity;BME280_pressure;Samples;Min_cycle;Max_cycle;Signal;HPM_P1;HPM_P2
2022/03/13 00:02:16;;;;;;;5.03;4.10;;;11.70;99.90;;;;;;6206722;23;20178;-76
2022/03/13 00:04:44;;;;;;;4.97;3.87;;;11.70;99.90;;;;;;6206610;23;20170;-76
2022/03/13 00:07:18;;;;;;;4.70;3.73;;;11.70;99.90;;;;;;6206152;23;20743;-76
2022/03/13 00:09:48;;;;;;;4.60;3.83;;;11.70;99.90;;;;;;6206452;23;20162;-75
2022/03/13 00:12:26;;;;;;;4.47;3.30;;;11.70;99.90;;;;;;6206080;23;20166;-74
2022/03/13 00:14:53;;;;;;;3.30;3.00;;;11.60;99.90;;;;;;6205712;23;20170;-76
2022/03/13 00:17:21;;;;;;;3.30;2.80;;;11.60;99.90;;;;;;6205908;23;20181;-76
2022/03/13 00:19:49;;;;;;;3.03;2.60;;;11.60;99.90;;;;;;6206657;23;20201;-77
2022/03/13 00:22:16;;;;;;;3.20;2.90;;;11.60;99.90;;;;;;6205396;23;20294;-75
2022/03/13 00:24:43;;;;;;;3.67;2.70;;;11.60;99.90;;;;;;6206681;23;20174;-77
2022/03/13 00:27:11;;;;;;;4.07;2.73;;;11.60;99.90;;;;;;6206884;23;20194;-79
2022/03/13 00:29:40;;;;;;;2.87;2.60;;;11.60;99.90;;;;;;6207223;23;20182;-78
2022/03/13 00:32:07;;;;;;;4.07;2.53;;;11.60;99.90;;;;;;6207237;23;20233;-77
2022/03/13 00:34:34;;;;;;;2.93;2.30;;;11.60;99.90;;;;;;6205821;23;20170;-78
2022/03/13 00:37:01;;;;;;;3.03;2.60;;;11.60;99.90;;;;;;6206479;23;20177;-78
2022/03/13 00:39:28;;;;;;;2.87;2.53;;;11.60;99.90;;;;;;6205463;23;20174;-79
2022/03/13 00:41:55;;;;;;;3.10;2.80;;;11.60;99.90;;;;;;6205567;23;20582;-77
2022/03/13 00:44:23;;;;;;;2.90;2.40;;;11.60;99.90;;;;;;6206334;23;20178;-78
2022/03/13 00:46:50;;;;;;;3.70;2.60;;;11.60;99.90;;;;;;6207207;23;20197;-76
2022/03/13 00:49:17;;;;;;;3.23;2.80;;;11.60;99.90;;;;;;6205579;23;20209;-77
2022/03/13 00:51:44;;;;;;;3.17;2.70;;;11.60;99.90;;;;;;6207370;23;20181;-78
2022/03/13 00:54:11;;;;;;;3.80;2.40;;;11.50;99.90;;;;;;6207065;23;20537;-76
2022/03/13 00:56:38;;;;;;;3.07;2.53;;;11.50;99.90;;;;;;6205234;23;20170;-77
2022/03/13 00:59:05;;;;;;;3.27;2.17;;;11.50;99.90;;;;;;6207436;23;20174;-77
2022/03/13 01:01:33;;;;;;;2.60;2.40;;;11.50;99.90;;;;;;6207569;23;20174;-77
2022/03/13 01:03:59;;;;;;;4.43;3.10;;;11.50;99.90;;;;;;6206163;23;20182;-78
2022/03/13 01:06:26;;;;;;;3.37;3.03;;;11.50;99.90;;;;;;6206963;23;20198;-77
2022/03/13 01:08:53;;;;;;;2.90;2.60;;;11.50;99.90;;;;;;6207289;23;20170;-79
2022/03/13 01:11:22;;;;;;;3.57;2.70;;;11.50;99.90;;;;;;6206246;23;20378;-75
2022/03/13 01:13:50;;;;;;;3.70;2.90;;;11.40;99.90;;;;;;6206239;23;20180;-78
2022/03/13 01:16:18;;;;;;;3.07;2.67;;;11.50;99.90;;;;;;6206508;23;20182;-78
2022/03/13 01:18:48;;;;;;;3.30;2.53;;;11.40;99.90;;;;;;6205974;23;20514;-78
2022/03/13 01:21:16;;;;;;;3.00;2.50;;;11.40;99.90;;;;;;6205502;23;20209;-78
2022/03/13 01:24:03;;;;;;;2.97;2.60;;;11.40;99.90;;;;;;6203295;23;20182;-77
2022/03/13 01:26:38;;;;;;;3.37;3.07;;;11.40;99.90;;;;;;6206035;23;20194;-76
2022/03/13 01:29:07;;;;;;;3.27;2.97;;;11.40;99.90;;;;;;6205848;23;20238;-76
2022/03/13 01:31:40;;;;;;;3.23;2.93;;;11.30;99.90;;;;;;6204675;23;20181;-76
2022/03/13 01:34:13;;;;;;;2.90;2.60;;;11.30;99.90;;;;;;6205835;23;20170;-75
2022/03/13 01:36:40;;;;;;;3.17;2.87;;;11.30;99.90;;;;;;6206159;23;20166;-75
2022/03/13 01:39:07;;;;;;;4.17;3.20;;;11.30;99.90;;;;;;6205168;23;20178;-75
2022/03/13 01:41:35;;;;;;;3.00;2.70;;;11.30;99.90;;;;;;6205941;23;20626;-76
2022/03/13 01:44:03;;;;;;;3.00;2.73;;;11.30;99.90;;;;;;6205678;23;20277;-76
2022/03/13 01:46:30;;;;;;;2.80;2.50;;;11.30;99.90;;;;;;6204916;23;20283;-76
2022/03/13 01:48:59;;;;;;;3.20;2.53;;;11.20;99.90;;;;;;6205604;23;20180;-76
2022/03/13 01:51:28;;;;;;;3.50;3.10;;;11.20;99.90;;;;;;6205647;23;20178;-76
2022/03/13 01:53:58;;;;;;;3.10;2.80;;;11.30;99.90;;;;;;6204873;23;20174;-77
2022/03/13 01:56:26;;;;;;;3.43;3.10;;;11.30;99.90;;;;;;6206303;23;20166;-76
2022/03/13 01:58:55;;;;;;;3.43;3.10;;;11.30;99.90;;;;;;6205988;23;20263;-77
2022/03/13 02:01:24;;;;;;;3.87;2.80;;;11.30;99.90;;;;;;6205388;23;20193;-77
2022/03/13 02:03:51;;;;;;;3.97;2.73;;;11.30;99.90;;;;;;6205962;23;20202;-76
2022/03/13 02:06:20;;;;;;;3.10;2.80;;;11.30;99.90;;;;;;6204416;23;20202;-75
2022/03/13 02:08:50;;;;;;;4.10;3.43;;;11.30;99.90;;;;;;6206172;23;20253;-80
2022/03/13 02:11:19;;;;;;;3.57;2.97;;;11.30;99.90;;;;;;6206316;23;20167;-76
2022/03/13 02:13:47;;;;;;;4.70;3.83;;;11.20;99.90;;;;;;6205074;23;20229;-76
2022/03/13 02:16:15;;;;;;;4.13;3.30;;;11.20;99.90;;;;;;6205212;23;20177;-77
2022/03/13 02:18:42;;;;;;;3.50;3.20;;;11.20;99.90;;;;;;6205999;23;20177;-77
2022/03/13 02:21:10;;;;;;;3.77;3.37;;;11.20;99.90;;;;;;6204127;23;20206;-76
2022/03/13 02:23:38;;;;;;;3.57;3.20;;;11.10;99.90;;;;;;6205807;23;20261;-75
2022/03/13 02:26:07;;;;;;;4.63;3.70;;;11.10;99.90;;;;;;6205814;23;20178;-76
2022/03/13 02:28:35;;;;;;;4.10;3.63;;;11.10;99.90;;;;;;6205501;23;20201;-76
2022/03/13 02:31:05;;;;;;;3.73;3.43;;;11.10;99.90;;;;;;6206080;23;20193;-75
2022/03/13 02:33:32;;;;;;;3.37;2.97;;;11.00;99.90;;;;;;6204598;23;20166;-74
2022/03/13 02:36:02;;;;;;;5.80;3.57;;;11.10;99.90;;;;;;6204571;23;20445;-75
2022/03/13 02:38:30;;;;;;;3.20;2.90;;;11.10;99.90;;;;;;6205198;23;20170;-75
2022/03/13 02:40:59;;;;;;;4.73;4.10;;;11.10;99.90;;;;;;6204412;23;20178;-75
2022/03/13 02:43:27;;;;;;;4.37;3.33;;;11.10;99.90;;;;;;6205561;23;20182;-75
2022/03/13 02:45:54;;;;;;;3.50;3.17;;;11.00;99.90;;;;;;6204381;23;20181;-76
2022/03/13 02:48:21;;;;;;;3.90;3.50;;;11.00;99.90;;;;;;6204797;23;20213;-76
2022/03/13 02:50:48;;;;;;;4.30;3.73;;;11.00;99.90;;;;;;6204717;23;20389;-77
2022/03/13 02:53:17;;;;;;;3.83;3.43;;;11.00;99.90;;;;;;6204822;23;20181;-78
2022/03/13 02:55:45;;;;;;;4.33;3.67;;;10.90;99.90;;;;;;6204277;23;20587;-75
2022/03/13 02:58:13;;;;;;;5.20;3.70;;;10.90;99.90;;;;;;6205383;23;20197;-77
2022/03/13 03:00:46;;;;;;;3.77;3.33;;;10.90;99.90;;;;;;6205663;23;20178;-81
2022/03/13 03:03:15;;;;;;;4.67;3.73;;;10.90;99.90;;;;;;6204079;23;20178;-81
2022/03/13 03:05:41;;;;;;;4.57;3.40;;;10.80;99.90;;;;;;6205052;23;20971;-74
2022/03/13 03:08:09;;;;;;;3.70;3.30;;;10.80;99.90;;;;;;6205294;23;20696;-77
2022/03/13 03:10:36;;;;;;;4.20;3.80;;;10.80;99.90;;;;;;6204795;23;20173;-78
2022/03/13 03:13:04;;;;;;;5.27;3.60;;;10.80;99.90;;;;;;6204346;23;20177;-77
2022/03/13 03:15:33;;;;;;;4.43;3.37;;;10.80;99.90;;;;;;6204942;23;20191;-76
2022/03/13 03:18:00;;;;;;;4.53;3.93;;;10.80;99.90;;;;;;6204926;23;20170;-76
2022/03/13 03:20:26;;;;;;;4.17;3.40;;;10.70;99.90;;;;;;6204494;23;20205;-77
2022/03/13 03:22:53;;;;;;;4.67;3.93;;;10.70;99.90;;;;;;6205619;23;20447;-75
2022/03/13 03:25:23;;;;;;;3.77;3.37;;;10.70;99.90;;;;;;6205779;23;20182;-76
2022/03/13 03:27:50;;;;;;;3.90;3.50;;;10.70;99.90;;;;;;6204676;23;20575;-77
2022/03/13 03:30:19;;;;;;;4.73;3.60;;;10.70;99.90;;;;;;6205229;23;20185;-76
2022/03/13 03:32:48;;;;;;;4.27;3.83;;;10.60;99.90;;;;;;6204855;23;20830;-76
2022/03/13 03:35:15;;;;;;;4.17;3.77;;;10.60;99.90;;;;;;6205107;23;20229;-76
2022/03/13 03:37:41;;;;;;;4.73;3.80;;;10.60;99.90;;;;;;6204495;23;20178;-77
2022/03/13 03:40:10;;;;;;;5.27;4.03;;;10.60;99.90;;;;;;6205997;23;20178;-78
2022/03/13 03:42:37;;;;;;;7.57;5.20;;;10.60;99.90;;;;;;6206316;23;20446;-76
2022/03/13 03:45:04;;;;;;;4.50;3.80;;;10.60;99.90;;;;;;6204813;23;20174;-75
2022/03/13 03:47:31;;;;;;;6.17;4.13;;;10.60;99.90;;;;;;6204956;23;20198;-76
2022/03/13 03:50:00;;;;;;;5.03;4.00;;;10.60;99.90;;;;;;6205776;23;20174;-74
2022/03/13 03:52:26;;;;;;;4.37;3.27;;;10.60;99.90;;;;;;6203983;23;20834;-80
2022/03/13 03:54:53;;;;;;;5.33;3.80;;;10.60;99.90;;;;;;6205122;23;20174;-77
2022/03/13 03:57:20;;;;;;;3.73;3.13;;;10.60;99.90;;;;;;6205326;23;20445;-78
2022/03/13 03:59:47;;;;;;;4.50;3.83;;;10.60;99.90;;;;;;6205167;23;20236;-75
2022/03/13 04:02:14;;;;;;;4.10;3.70;;;10.60;99.90;;;;;;6205162;23;20174;-75
2022/03/13 04:04:41;;;;;;;4.00;3.60;;;10.60;99.90;;;;;;6205808;23;20494;-76
2022/03/13 04:07:09;;;;;;;5.13;3.33;;;10.60;99.90;;;;;;6205214;23;20205;-77
2022/03/13 04:09:36;;;;;;;5.37;3.87;;;10.60;99.90;;;;;;6204263;23;20244;-75
2022/03/13 04:12:07;;;;;;;5.20;3.50;;;10.70;99.90;;;;;;6205035;23;20567;-77
2022/03/13 04:14:35;;;;;;;5.40;3.70;;;10.70;99.90;;;;;;6206820;23;20166;-77
2022/03/13 04:17:02;;;;;;;4.47;3.40;;;10.70;99.90;;;;;;6207816;23;20201;-78
2022/03/13 04:19:29;;;;;;;4.50;3.70;;;10.60;99.90;;;;;;6205822;23;20181;-81
2022/03/13 04:21:56;;;;;;;4.43;3.83;;;10.60;99.90;;;;;;6207067;23;20202;-79
2022/03/13 04:24:25;;;;;;;5.40;4.00;;;10.60;99.90;;;;;;6206675;23;20657;-76
2022/03/13 04:26:52;;;;;;;4.07;3.67;;;10.60;99.90;;;;;;6207452;23;20618;-77
2022/03/13 04:29:23;;;;;;;5.40;3.70;;;10.60;99.90;;;;;;6208053;23;20202;-78
2022/03/13 04:31:52;;;;;;;5.07;4.27;;;10.60;99.90;;;;;;6207516;23;20261;-76
2022/03/13 04:34:18;;;;;;;4.10;3.70;;;10.60;99.90;;;;;;6206361;23;20174;-82
2022/03/13 04:36:46;;;;;;;4.33;3.67;;;10.60;99.90;;;;;;6207155;23;20182;-81
2022/03/13 04:39:13;;;;;;;4.17;3.77;;;10.60;99.90;;;;;;6207311;23;20630;-82
2022/03/13 04:41:41;;;;;;;5.27;4.00;;;10.60;99.90;;;;;;6206476;23;20174;-77
2022/03/13 04:44:12;;;;;;;4.17;3.77;;;10.60;99.90;;;;;;6207417;23;20175;-77
2022/03/13 04:46:39;;;;;;;5.17;4.67;;;10.60;99.90;;;;;;6207524;23;20253;-80
2022/03/13 04:49:05;;;;;;;5.27;3.83;;;10.50;99.90;;;;;;6207572;23;20201;-76
2022/03/13 04:51:32;;;;;;;5.13;4.37;;;10.50;99.90;;;;;;6208141;23;20571;-79
2022/03/13 04:53:59;;;;;;;4.90;4.40;;;10.50;99.90;;;;;;6208608;23;20170;-79
2022/03/13 04:56:26;;;;;;;4.23;3.83;;;10.50;99.90;;;;;;6207470;23;20185;-76
2022/03/13 04:58:54;;;;;;;6.03;4.60;;;10.50;99.90;;;;;;6207833;23;20170;-84
2022/03/13 05:01:21;;;;;;;4.97;4.20;;;10.50;99.90;;;;;;6208827;23;20174;-79
2022/03/13 05:03:48;;;;;;;5.37;4.57;;;10.50;99.90;;;;;;6206902;23;20209;-76
2022/03/13 05:06:14;;;;;;;5.70;4.43;;;10.50;99.90;;;;;;6206666;23;20200;-76
2022/03/13 05:08:41;;;;;;;5.43;4.53;;;10.50;99.90;;;;;;6205709;23;20622;-77
2022/03/13 05:11:09;;;;;;;6.60;4.43;;;10.40;99.90;;;;;;6207291;23;20233;-76
2022/03/13 05:13:36;;;;;;;4.93;3.93;;;10.50;99.90;;;;;;6206331;23;20174;-79
2022/03/13 05:16:05;;;;;;;4.93;4.40;;;10.40;99.90;;;;;;6205325;23;20857;-80
2022/03/13 05:18:32;;;;;;;6.63;4.77;;;10.40;99.90;;;;;;6206840;23;20181;-77
2022/03/13 05:20:59;;;;;;;7.20;4.80;;;10.40;99.90;;;;;;6206470;23;20202;-76
2022/03/13 05:23:26;;;;;;;6.57;4.27;;;10.40;99.90;;;;;;6205741;23;20174;-77
2022/03/13 05:25:52;;;;;;;5.87;4.93;;;10.40;99.90;;;;;;6206485;23;20466;-79
2022/03/13 05:28:19;;;;;;;7.13;5.03;;;10.30;99.90;;;;;;6206340;23;20198;-77
2022/03/13 05:30:47;;;;;;;5.70;5.10;;;10.30;99.90;;;;;;6206465;23;20174;-76
2022/03/13 05:33:15;;;;;;;6.13;5.07;;;10.20;99.90;;;;;;6206749;23;20201;-77
2022/03/13 05:35:42;;;;;;;6.87;5.13;;;10.20;99.90;;;;;;6206885;23;20184;-78
2022/03/13 05:38:09;;;;;;;6.17;4.40;;;10.20;99.90;;;;;;6206251;23;20177;-81
2022/03/13 05:40:36;;;;;;;5.73;4.83;;;10.10;99.90;;;;;;6206847;23;20578;-78
2022/03/13 05:43:04;;;;;;;6.90;5.03;;;10.10;99.90;;;;;;6206803;23;20288;-76
2022/03/13 05:45:32;;;;;;;6.67;4.97;;;10.10;99.90;;;;;;6205497;23;20181;-77
2022/03/13 05:48:06;;;;;;;6.67;5.40;;;10.10;99.90;;;;;;6206803;23;20217;-76
2022/03/13 05:50:35;;;;;;;5.57;4.67;;;10.10;99.90;;;;;;6206286;23;20892;-79
2022/03/13 05:53:02;;;;;;;6.73;5.10;;;10.10;99.90;;;;;;6205465;23;20544;-81
2022/03/13 05:55:30;;;;;;;7.20;4.63;;;10.10;99.90;;;;;;6205168;23;20208;-79
2022/03/13 05:57:59;;;;;;;5.80;4.77;;;10.10;99.90;;;;;;6205690;23;20193;-77
2022/03/13 06:00:27;;;;;;;7.27;4.60;;;10.10;99.90;;;;;;6206265;23;20184;-76
2022/03/13 06:02:54;;;;;;;6.73;5.20;;;10.10;99.90;;;;;;6206324;23;20177;-81
2022/03/13 06:05:22;;;;;;;7.47;5.17;;;10.10;99.90;;;;;;6205881;23;20185;-83
2022/03/13 06:07:51;;;;;;;6.87;4.70;;;10.10;99.90;;;;;;6206211;23;20201;-76
2022/03/13 06:10:18;;;;;;;7.20;4.83;;;10.20;99.90;;;;;;6205307;23;20174;-77
2022/03/13 06:12:45;;;;;;;5.70;4.80;;;10.20;99.90;;;;;;6205180;23;20289;-76
2022/03/13 06:15:13;;;;;;;5.53;4.63;;;10.20;99.90;;;;;;6207215;23;20178;-79
2022/03/13 06:17:42;;;;;;;7.00;5.37;;;10.20;99.90;;;;;;6206051;23;20173;-77
2022/03/13 06:20:11;;;;;;;6.23;4.80;;;10.20;99.90;;;;;;6205333;23;20205;-77
2022/03/13 06:22:38;;;;;;;6.67;4.77;;;10.20;99.90;;;;;;6205908;23;20158;-77
2022/03/13 06:25:09;;;;;;;5.80;5.17;;;10.20;99.90;;;;;;6206639;23;20166;-75
2022/03/13 06:27:36;;;;;;;7.10;5.03;;;10.30;99.90;;;;;;6205812;23;20181;-76
2022/03/13 06:30:11;;;;;;;6.30;5.70;;;10.30;99.90;;;;;;6206583;23;20664;-78
2022/03/13 06:32:38;;;;;;;6.60;5.90;;;10.30;99.90;;;;;;6206834;23;20174;-80
2022/03/13 06:35:05;;;;;;;6.97;6.00;;;10.30;99.90;;;;;;6206010;23;20197;-78
2022/03/13 06:37:32;;;;;;;8.90;6.13;;;10.20;99.90;;;;;;6205870;23;20177;-77
2022/03/13 06:39:59;;;;;;;7.53;6.70;;;10.20;99.90;;;;;;6205998;23;20170;-77
2022/03/13 06:42:27;;;;;;;11.27;8.10;;;10.20;99.90;;;;;;6205988;23;20178;-81
2022/03/13 06:44:54;;;;;;;10.93;7.93;;;10.10;99.90;;;;;;6206410;23;20180;-77
2022/03/13 06:47:21;;;;;;;11.60;9.33;;;10.10;99.90;;;;;;6206309;23;20174;-79
2022/03/13 06:49:48;;;;;;;12.83;9.83;;;10.10;99.90;;;;;;6207079;23;20261;-78
2022/03/13 06:52:15;;;;;;;12.50;9.37;;;10.00;99.90;;;;;;6207255;23;20178;-81
2022/03/13 06:54:43;;;;;;;13.23;10.57;;;10.00;99.90;;;;;;6206555;23;20178;-81
2022/03/13 06:57:09;;;;;;;13.07;11.27;;;10.00;99.90;;;;;;6207354;23;20213;-78
2022/03/13 06:59:37;;;;;;;38.50;12.70;;;10.00;99.90;;;;;;6205832;23;20594;-80
2022/03/13 07:02:04;;;;;;;17.43;12.13;;;10.10;99.90;;;;;;6205329;23;20586;-78
2022/03/13 07:04:31;;;;;;;18.93;12.80;;;10.10;99.90;;;;;;6204594;23;20215;-80
2022/03/13 07:06:58;;;;;;;16.67;12.70;;;10.20;99.90;;;;;;6205407;23;20198;-77
2022/03/13 07:09:26;;;;;;;14.07;12.00;;;10.20;99.90;;;;;;6205004;23;20455;-77
2022/03/13 07:11:52;;;;;;;16.53;12.87;;;10.20;99.90;;;;;;6206180;23;20178;-79
2022/03/13 07:14:21;;;;;;;17.43;12.97;;;10.30;99.90;;;;;;6205662;23;20180;-81
2022/03/13 07:16:49;;;;;;;19.67;13.80;;;10.30;99.90;;;;;;6205522;23;20841;-78
2022/03/13 07:19:16;;;;;;;16.00;13.13;;;10.30;99.90;;;;;;6205811;23;20642;-78
2022/03/13 07:21:43;;;;;;;18.67;13.80;;;10.40;99.90;;;;;;6205076;23;20220;-80
2022/03/13 07:24:10;;;;;;;18.00;13.80;;;10.40;99.90;;;;;;6205939;23;20184;-78
2022/03/13 07:26:37;;;;;;;16.67;13.37;;;10.40;99.90;;;;;;6205242;23;20174;-75
2022/03/13 07:29:04;;;;;;;15.97;13.43;;;10.50;99.90;;;;;;6205740;23;20204;-76
2022/03/13 07:31:31;;;;;;;16.57;13.20;;;10.50;99.90;;;;;;6205149;23;20263;-77
2022/03/13 07:34:00;;;;;;;18.43;14.27;;;10.50;99.90;;;;;;6205350;23;20810;-77
2022/03/13 07:36:27;;;;;;;16.90;13.87;;;10.50;99.90;;;;;;6203979;23;20536;-81
2022/03/13 07:38:54;;;;;;;16.70;13.67;;;10.60;99.90;;;;;;6205586;23;20170;-76
2022/03/13 07:41:21;;;;;;;18.30;13.63;;;10.60;99.90;;;;;;6205614;23;20174;-78
2022/03/13 07:43:48;;;;;;;20.13;14.03;;;10.70;99.90;;;;;;6205985;23;20206;-80
2022/03/13 07:46:15;;;;;;;17.67;14.30;;;10.70;99.90;;;;;;6208326;23;20177;-79
2022/03/13 07:48:43;;;;;;;16.17;13.00;;;10.80;99.90;;;;;;6210442;23;20197;-75
2022/03/13 07:51:11;;;;;;;18.77;14.53;;;10.80;99.90;;;;;;6207480;23;20174;-77
2022/03/13 07:53:38;;;;;;;18.63;14.47;;;10.80;99.90;;;;;;6209315;23;20206;-79
2022/03/13 07:56:06;;;;;;;16.37;13.47;;;10.80;99.90;;;;;;6208607;23;20181;-75
2022/03/13 07:58:34;;;;;;;17.80;14.00;;;10.90;99.90;;;;;;6207173;23;20693;-75
2022/03/13 08:01:01;;;;;;;17.00;13.27;;;10.90;99.90;;;;;;6207660;23;20215;-76
2022/03/13 08:03:29;;;;;;;17.93;14.57;;;10.90;99.90;;;;;;6206764;23;20491;-75
2022/03/13 08:05:57;;;;;;;17.93;13.77;;;10.90;99.90;;;;;;6172940;23;20261;-77
2022/03/13 08:08:25;;;;;;;18.90;14.40;;;10.90;99.90;;;;;;6207272;23;20209;-76
2022/03/13 08:10:52;;;;;;;18.07;12.80;;;11.00;99.90;;;;;;6206629;23;20178;-77
2022/03/13 08:13:18;;;;;;;17.03;13.17;;;11.00;99.90;;;;;;6206619;23;20252;-76
2022/03/13 08:15:45;;;;;;;19.60;13.80;;;11.00;99.90;;;;;;6207241;23;20190;-78
2022/03/13 08:18:13;;;;;;;17.77;13.57;;;11.00;99.90;;;;;;6207926;23;20225;-76
2022/03/13 08:20:40;;;;;;;17.77;13.90;;;11.10;99.90;;;;;;6201956;23;20201;-77
2022/03/13 08:23:06;;;;;;;17.77;14.00;;;11.10;99.90;;;;;;6207371;23;20174;-75
2022/03/13 08:25:35;;;;;;;17.13;13.73;;;11.20;99.90;;;;;;6205123;23;20226;-79
2022/03/13 08:28:02;;;;;;;18.73;13.63;;;11.30;99.90;;;;;;6206985;23;20209;-77
2022/03/13 08:30:29;;;;;;;18.27;13.77;;;11.30;99.90;;;;;;6207304;23;20194;-76
2022/03/13 08:32:56;;;;;;;19.20;13.63;;;11.30;99.90;;;;;;6206379;23;20173;-77
2022/03/13 08:35:24;;;;;;;18.83;14.13;;;11.40;99.90;;;;;;6207094;23;20166;-77
2022/03/13 08:37:51;;;;;;;16.27;13.03;;;11.40;99.90;;;;;;6207219;23;20256;-75
2022/03/13 08:40:18;;;;;;;16.90;13.60;;;11.40;99.90;;;;;;6206098;23;20176;-76
2022/03/13 08:42:46;;;;;;;18.47;14.17;;;11.40;99.90;;;;;;6206526;23;20547;-78
2022/03/13 08:45:13;;;;;;;16.07;12.97;;;11.50;99.90;;;;;;6206605;23;20805;-78
2022/03/13 08:47:40;;;;;;;16.07;13.63;;;11.70;99.90;;;;;;6205595;23;20173;-75
2022/03/13 08:50:11;;;;;;;16.17;13.67;;;11.80;99.90;;;;;;6206138;23;20883;-77
2022/03/13 08:52:38;;;;;;;17.43;14.37;;;11.90;99.90;;;;;;6207189;23;20661;-76
2022/03/13 08:55:08;;;;;;;16.70;12.97;;;11.90;99.90;;;;;;6205223;23;20213;-77
2022/03/13 08:57:34;;;;;;;16.77;13.13;;;11.90;99.90;;;;;;6205510;23;20193;-75
2022/03/13 09:00:04;;;;;;;15.63;12.97;;;12.00;99.90;;;;;;6205761;23;20181;-76
2022/03/13 09:02:31;;;;;;;16.20;13.17;;;12.00;99.90;;;;;;6205879;23;20184;-77
2022/03/13 09:04:58;;;;;;;16.27;13.30;;;12.10;99.90;;;;;;6207419;23;20181;-76
2022/03/13 09:07:25;;;;;;;17.87;13.03;;;12.10;99.90;;;;;;6207047;23;20670;-75
2022/03/13 09:09:51;;;;;;;16.73;13.60;;;12.10;99.90;;;;;;6206033;23;20629;-76
2022/03/13 09:12:19;;;;;;;15.70;13.07;;;12.10;99.90;;;;;;6206297;23;20174;-76
2022/03/13 09:14:46;;;;;;;17.37;12.70;;;12.10;99.90;;;;;;6205175;23;20174;-76
2022/03/13 09:17:15;;;;;;;16.17;13.33;;;12.20;99.90;;;;;;6205332;23;20589;-75
2022/03/13 09:19:42;;;;;;;18.30;12.93;;;12.20;99.90;;;;;;6205406;23;20201;-79
2022/03/13 09:22:09;;;;;;;18.00;13.53;;;12.30;99.90;;;;;;6205034;23;20213;-75
2022/03/13 09:24:36;;;;;;;17.23;13.07;;;12.40;99.90;;;;;;6205112;23;20174;-76
2022/03/13 09:27:03;;;;;;;16.00;11.90;;;12.60;99.90;;;;;;6206465;23;20181;-76
2022/03/13 09:29:30;;;;;;;15.60;11.97;;;12.70;99.90;;;;;;6205102;23;20194;-77
2022/03/13 09:31:56;;;;;;;16.27;13.03;;;12.80;99.90;;;;;;6207089;23;20178;-75
2022/03/13 09:34:25;;;;;;;15.27;12.73;;;12.90;99.90;;;;;;6205678;23;20181;-76
2022/03/13 09:36:52;;;;;;;15.87;12.57;;;13.00;99.90;;;;;;6205168;23;20180;-73
2022/03/13 09:39:19;;;;;;;16.20;12.87;;;13.10;99.90;;;;;;6206222;23;20200;-76
2022/03/13 09:41:46;;;;;;;14.40;12.10;;;13.20;99.90;;;;;;6206760;23;20185;-78
2022/03/13 09:44:12;;;;;;;16.23;13.10;;;13.20;99.90;;;;;;6205790;23;20170;-82
2022/03/13 09:46:39;;;;;;;16.63;12.93;;;13.30;99.90;;;;;;6206961;23;20173;-80
2022/03/13 09:49:07;;;;;;;17.20;12.87;;;13.30;99.90;;;;;;6206410;23;20548;-80
2022/03/13 09:51:35;;;;;;;14.60;12.67;;;13.40;99.90;;;;;;6205186;23;20185;-76
2022/03/13 09:54:02;;;;;;;16.67;12.73;;;13.60;99.90;;;;;;6206453;23;20181;-79
2022/03/13 09:56:29;;;;;;;16.53;13.60;;;13.60;99.90;;;;;;6206132;23;20174;-77
2022/03/13 09:58:56;;;;;;;19.23;14.30;;;13.60;99.90;;;;;;6204281;23;20178;-75
2022/03/13 10:01:22;;;;;;;20.27;12.70;;;13.60;99.90;;;;;;6204280;23;20178;-77
2022/03/13 10:03:49;;;;;;;16.00;13.43;;;13.70;99.90;;;;;;6205499;23;20631;-75
2022/03/13 10:06:16;;;;;;;17.60;13.77;;;13.90;99.90;;;;;;6205677;23;20261;-76
2022/03/13 10:08:44;;;;;;;19.33;13.77;;;13.90;99.90;;;;;;6206416;23;20170;-75
2022/03/13 10:11:11;;;;;;;17.83;14.17;;;14.00;99.90;;;;;;6204567;23;20185;-77
2022/03/13 10:13:40;;;;;;;18.57;14.20;;;14.10;99.90;;;;;;6206269;23;20174;-77
2022/03/13 10:16:08;;;;;;;16.03;13.47;;;14.10;99.90;;;;;;6205961;23;20174;-76
2022/03/13 10:18:35;;;;;;;17.70;13.90;;;14.20;99.90;;;;;;6205408;23;20248;-80
2022/03/13 10:21:09;;;;;;;18.73;13.10;;;14.30;99.90;;;;;;6204928;23;20201;-79
2022/03/13 10:23:36;;;;;;;16.87;13.67;;;14.30;99.90;;;;;;6205122;23;20638;-80
2022/03/13 10:26:05;;;;;;;19.20;14.07;;;14.40;99.90;;;;;;6204817;23;20668;-75
2022/03/13 10:28:33;;;;;;;18.20;13.43;;;14.50;99.90;;;;;;6205844;23;20170;-76
2022/03/13 10:31:11;;;;;;;16.97;12.90;;;14.50;99.90;;;;;;6206673;23;20270;-81
2022/03/13 10:33:55;;;;;;;16.83;12.90;;;14.50;99.90;;;;;;6205145;23;20618;-77
2022/03/13 10:36:25;;;;;;;14.90;12.37;;;14.60;99.90;;;;;;6207252;23;20169;-76
2022/03/13 10:38:52;;;;;;;15.70;12.80;;;14.70;99.90;;;;;;6205941;23;20249;-78
2022/03/13 10:41:25;;;;;;;14.83;12.30;;;14.80;99.90;;;;;;6207115;23;20232;-77
2022/03/13 10:44:03;;;;;;;15.87;12.30;;;14.90;99.90;;;;;;6207624;23;20205;-83
2022/03/13 10:46:32;;;;;;;14.90;12.27;;;15.10;99.90;;;;;;6205623;23;20161;-77
2022/03/13 10:49:00;;;;;;;18.03;12.10;;;15.00;99.90;;;;;;6204946;23;20757;-79
2022/03/13 10:51:36;;;;;;;14.60;12.97;;;15.10;99.90;;;;;;6204554;23;20189;-77
2022/03/13 10:54:05;;;;;;;16.03;11.93;;;15.10;99.90;;;;;;6205639;23;20183;-79
2022/03/13 10:56:33;;;;;;;15.47;12.50;;;15.00;99.90;;;;;;6204842;23;20594;-76
2022/03/13 10:59:17;;;;;;;14.83;12.43;;;15.20;99.90;;;;;;6205825;23;20185;-78
2022/03/13 11:01:44;;;;;;;14.87;11.57;;;15.20;99.90;;;;;;6205459;23;20166;-76
2022/03/13 11:04:15;;;;;;;15.63;12.37;;;15.30;99.90;;;;;;6205804;23;20181;-80
2022/03/13 11:06:43;;;;;;;12.50;10.37;;;15.30;99.90;;;;;;6206338;23;20252;-76
2022/03/13 11:09:10;;;;;;;15.83;11.47;;;15.40;99.90;;;;;;6205025;23;20265;-78
2022/03/13 11:11:39;;;;;;;15.70;11.87;;;15.40;99.90;;;;;;6204646;23;20593;-80
2022/03/13 11:14:07;;;;;;;14.80;12.17;;;15.70;99.90;;;;;;6205546;23;20836;-77
2022/03/13 11:16:34;;;;;;;15.90;11.83;;;15.70;99.90;;;;;;6204656;23;20174;-78
2022/03/13 11:19:04;;;;;;;13.87;11.63;;;15.60;99.90;;;;;;6204448;23;20181;-77
2022/03/13 11:21:31;;;;;;;14.27;12.60;;;15.60;99.90;;;;;;6203735;23;20205;-78
2022/03/13 11:24:01;;;;;;;12.70;10.93;;;15.80;99.90;;;;;;6206578;23;20177;-79
2022/03/13 11:26:30;;;;;;;14.98;10.63;;;15.80;99.90;;;;;;6207317;23;20478;-78
2022/03/13 11:29:00;;;;;;;12.25;10.95;;;15.70;99.90;;;;;;6206726;23;20665;-78
2022/03/13 11:31:32;;;;;;;11.43;10.23;;;15.90;99.90;;;;;;6207386;23;20194;-79
2022/03/13 11:34:14;;;;;;;13.97;10.97;;;16.10;99.90;;;;;;6207342;23;20245;-78
2022/03/13 11:36:42;;;;;;;16.20;12.47;;;16.10;99.90;;;;;;6206861;23;20181;-77
2022/03/13 11:39:10;;;;;;;14.40;12.07;;;16.20;99.90;;;;;;6207648;23;20205;-77
2022/03/13 11:41:39;;;;;;;14.05;12.43;;;16.10;99.90;;;;;;6206829;23;20174;-78
2022/03/13 11:44:38;;;;;;;14.55;12.27;;;16.10;99.90;;;;;;6206362;23;20185;-78
2022/03/13 11:47:24;;;;;;;15.85;12.40;;;16.10;99.90;;;;;;6208280;23;20177;-78
2022/03/13 11:49:51;;;;;;;13.57;12.15;;;16.00;99.90;;;;;;6206829;23;20224;-80
2022/03/13 11:52:29;;;;;;;17.75;12.95;;;16.00;99.90;;;;;;6207870;23;20443;-79
2022/03/13 11:54:58;;;;;;;14.68;12.75;;;15.90;99.90;;;;;;6208096;23;20264;-78
2022/03/13 11:57:27;;;;;;;13.50;11.55;;;16.00;99.90;;;;;;6205688;23;20170;-78
2022/03/13 12:00:31;;;;;;;13.55;12.15;;;16.20;99.90;;;;;;6207599;23;20502;-80
2022/03/13 12:03:13;;;;;;;13.98;11.52;;;16.20;99.90;;;;;;6208055;23;20182;-79
2022/03/13 12:05:53;;;;;;;14.85;12.52;;;16.40;99.90;;;;;;6203643;23;20174;-80
2022/03/13 12:08:23;;;;;;;13.35;10.73;;;16.40;99.90;;;;;;6207406;23;20638;-77
2022/03/13 12:10:51;;;;;;;14.02;12.20;;;16.50;99.90;;;;;;6206073;23;20198;-76
2022/03/13 12:13:20;;;;;;;12.93;11.52;;;16.50;99.90;;;;;;6208257;23;20172;-78
2022/03/13 12:15:49;;;;;;;13.57;11.43;;;16.70;99.90;;;;;;6207178;23;20205;-77
2022/03/13 12:18:18;;;;;;;15.25;12.35;;;16.70;99.90;;;;;;6206231;23;20501;-80
2022/03/13 12:20:46;;;;;;;15.57;12.13;;;16.80;99.90;;;;;;6206482;23;20233;-82
2022/03/13 12:23:26;;;;;;;13.05;11.55;;;16.70;99.90;;;;;;6207177;23;20181;-77
2022/03/13 12:25:54;;;;;;;13.30;11.52;;;16.80;99.90;;;;;;6206428;23;20166;-77
2022/03/13 12:28:33;;;;;;;15.32;12.00;;;16.80;99.90;;;;;;6207121;23;20240;-77
2022/03/13 12:31:07;;;;;;;13.07;11.48;;;16.70;99.90;;;;;;6206337;23;20416;-76
2022/03/13 12:33:37;;;;;;;19.02;12.02;;;16.80;99.90;;;;;;6207130;23;20189;-79
2022/03/13 12:36:05;;;;;;;14.48;12.07;;;16.90;99.90;;;;;;6206785;23;20198;-79
2022/03/13 12:38:36;;;;;;;11.82;10.35;;;16.80;99.90;;;;;;6206997;23;20236;-76
2022/03/13 12:41:09;;;;;;;11.82;10.60;;;16.80;99.90;;;;;;6206903;23;20162;-79
2022/03/13 12:43:53;;;;;;;12.55;9.80;;;16.80;99.90;;;;;;6206421;23;20775;-77
2022/03/13 12:46:23;;;;;;;12.05;10.80;;;16.80;99.90;;;;;;6204955;23;20181;-77